الصفحة الرئيسية
METAR-TAF:

METAR-TAF

مطار :

ميناء القاهرة الجوي

القاهرة, مصر

دائرة عرض: 30-08N, خط طول: 031-24E, ارتفاع: 64 متر

مراقبة الطقس الحالي

تاريخ ووقت الإصدار 21 دقيقة قبل الساعة 03:00UTC
ريح 7 عقدة من الشمال/الشمال الشرقي
درجة الحرارة 27°درجة مئوية
الرطوبة 51%
ضغط 1014 hPa
الرؤية: 6000 متر

METAR: HECA 230300Z 03007KT 6000 NSC 27/16 Q1014 NOSIG

زمن: 05:21 (03:21 UTC)

توقعات

تاريخ ووقت الإصدار 4ساعات و 21 دقيقة قبل الساعة 23:00UTC
التوقعات صالحة من23 الساعة 00 UTC إلى 24 الساعة 06 UTC
ريح 8 عقدة من الشمال
الرؤية 10 كم أو أكثر
الغيوم لا تقل 1500 م ولا وجود لمزنة ركامية السحاب الأسود
نظرية الاحتمالات 40%
من 23 الساعة 00 UTC إلى 23 الساعة 08 UTC
ريح 3 عقدةمن اتجاهات متغيرة
الرؤية: 4000 متر
العجاج

TAF: HECA 222300Z 2300/2406 36008KT CAVOK PROB40 2300/2308 VRB03KT 4000 HZ NSC

أرصاد الطقس والتوقعات من أكثر من 4000 مطار (تقارير الطقس للمطار METAR والتنبؤ بالطقس بالمطارTAF).

المحطات المتاحة هي النقط الصفراء والحمراء على الخريطة.

حرك المؤشر فوق النقطة لمعرفة اسم المحطة.

ثم انقر لمعرفة أرصاد وتوقعات الطقس.

لتغيير الخارطة: اضغط على الأزرار الخضراء مع رمز الصليب الأسود للتكبير. على الزر الأخضر مع شرطة للتصغير، أو على الأسهم الخضراء للخرائط المجاورة.


METAR-TAF: